createdAt,value
2023-03-26T00:00:54.305Z,94998.13
2023-03-26T00:03:56.509Z,94999.69
2023-03-26T00:06:58.759Z,94992.75
2023-03-26T00:10:02.436Z,94989.25
2023-03-26T00:13:05.319Z,95005.81
2023-03-26T00:16:09.440Z,94989.25
2023-03-26T00:19:12.001Z,94996.16
2023-03-26T00:22:17.903Z,94999.28
2023-03-26T00:25:19.735Z,94997.72
2023-03-26T00:28:23.207Z,94996.16
2023-03-26T00:31:26.917Z,94991.53
2023-03-26T00:34:30.724Z,94987.34
2023-03-26T00:37:32.810Z,94993.16
2023-03-26T00:40:34.747Z,94980.44
2023-03-26T00:43:36.696Z,94976.22
2023-03-26T00:46:40.292Z,94986.16
2023-03-26T00:49:43.262Z,94984.66
2023-03-26T00:52:46.074Z,94971.97
2023-03-26T00:55:48.892Z,94964.69
2023-03-26T00:58:51.078Z,94965.44
2023-03-26T01:01:54.816Z,94953.91
2023-03-26T01:04:59.108Z,94953.50
2023-03-26T01:08:01.697Z,94951.94
2023-03-26T01:11:08.281Z,94946.56
2023-03-26T01:14:13.785Z,94952.69
2023-03-26T01:17:18.644Z,94954.59
2023-03-26T01:20:23.758Z,94944.22
2023-03-26T01:23:34.897Z,94945.75
2023-03-26T01:27:02.899Z,94944.22
2023-03-26T01:30:13.790Z,94947.28
2023-03-26T01:33:24.171Z,94938.81
2023-03-26T01:36:32.757Z,94926.50
2023-03-26T01:39:42.697Z,94927.63
2023-03-26T01:42:52.219Z,94917.22
2023-03-26T01:45:55.932Z,94913.34
2023-03-26T01:48:58.763Z,94913.38
2023-03-26T01:52:00.527Z,94919.50
2023-03-26T01:55:05.371Z,94911.41
2023-03-26T01:58:22.988Z,94906.44
2023-03-26T02:01:30.280Z,94908.72
2023-03-26T02:04:39.137Z,94909.44
2023-03-26T02:07:45.424Z,94911.41
2023-03-26T02:10:51.623Z,94909.91
2023-03-26T02:13:55.484Z,94913.75
2023-03-26T02:16:58.093Z,94918.00
2023-03-26T02:20:02.863Z,94917.22
2023-03-26T02:23:04.752Z,94915.72
2023-03-26T02:26:10.127Z,94914.19
2023-03-26T02:29:14.623Z,94926.84
2023-03-26T02:32:16.380Z,94921.44
2023-03-26T02:35:18.385Z,94907.59
2023-03-26T02:38:20.285Z,94906.84
2023-03-26T02:41:22.459Z,94907.22
2023-03-26T02:44:26.074Z,94901.78
2023-03-26T02:47:30.221Z,94911.00
2023-03-26T02:50:32.651Z,94905.25
2023-03-26T02:53:35.728Z,94908.69
2023-03-26T02:56:37.893Z,94912.88
2023-03-26T02:59:41.979Z,94916.72
2023-03-26T03:02:44.100Z,94907.53
2023-03-26T03:05:47.394Z,94913.22
2023-03-26T03:08:49.726Z,94902.50
2023-03-26T03:11:53.399Z,94900.19
2023-03-26T03:14:56.814Z,94900.91
2023-03-26T03:17:58.921Z,94906.63
2023-03-26T03:21:00.957Z,94899.38
2023-03-26T03:24:02.851Z,94899.00
2023-03-26T03:27:06.962Z,94916.63
2023-03-26T03:30:12.964Z,94900.47
2023-03-26T03:33:15.267Z,94892.41
2023-03-26T03:36:21.900Z,94893.16
2023-03-26T03:39:23.806Z,94886.63
2023-03-26T03:42:25.863Z,94884.28
2023-03-26T03:45:29.453Z,94883.47
2023-03-26T03:48:31.328Z,94884.16
2023-03-26T03:51:33.410Z,94879.59
2023-03-26T03:54:36.167Z,94883.06
2023-03-26T03:57:40.060Z,94878.06
2023-03-26T04:00:43.515Z,94875.69
2023-03-26T04:03:45.843Z,94872.59
2023-03-26T04:06:49.077Z,94876.06
2023-03-26T04:09:51.033Z,94867.22
2023-03-26T04:12:52.783Z,94859.97
2023-03-26T04:15:56.776Z,94868.06
2023-03-26T04:19:00.234Z,94855.00
2023-03-26T04:22:02.027Z,94855.00
2023-03-26T04:25:04.735Z,94845.41
2023-03-26T04:28:09.245Z,94844.63
2023-03-26T04:31:16.809Z,94837.38
2023-03-26T04:34:22.856Z,94831.56
2023-03-26T04:37:30.592Z,94825.81
2023-03-26T04:40:34.202Z,94822.28
2023-03-26T04:43:36.417Z,94818.81
2023-03-26T04:46:41.226Z,94814.53
2023-03-26T04:49:44.078Z,94812.28
2023-03-26T04:52:45.978Z,94813.47
2023-03-26T04:55:56.596Z,94814.25
2023-03-26T04:59:01.585Z,94818.13
2023-03-26T05:02:06.674Z,94811.94
2023-03-26T05:05:10.579Z,94818.09
2023-03-26T05:08:12.910Z,94816.56
2023-03-26T05:11:16.526Z,94806.16
2023-03-26T05:14:19.496Z,94802.41
2023-03-26T05:17:24.431Z,94800.09
2023-03-26T05:20:28.197Z,94808.97
2023-03-26T05:23:30.365Z,94803.19
2023-03-26T05:26:32.490Z,94810.13
2023-03-26T05:29:34.271Z,94805.56
2023-03-26T05:32:37.686Z,94802.91
2023-03-26T05:35:41.647Z,94802.56
2023-03-26T05:38:44.080Z,94800.66
2023-03-26T05:41:46.506Z,94812.19
2023-03-26T05:44:48.635Z,94816.03
2023-03-26T05:47:51.896Z,94820.66
2023-03-26T05:50:57.242Z,94816.44
2023-03-26T05:53:59.296Z,94817.59
2023-03-26T05:57:02.867Z,94812.25
2023-03-26T06:00:07.051Z,94810.69
2023-03-26T06:03:10.506Z,94809.56
2023-03-26T06:06:17.500Z,94809.19
2023-03-26T06:09:19.890Z,94800.34
2023-03-26T06:12:23.009Z,94801.47
2023-03-26T06:15:25.117Z,94801.84
2023-03-26T06:18:29.986Z,94805.31
2023-03-26T06:21:32.291Z,94802.28
2023-03-26T06:24:34.521Z,94797.72
2023-03-26T06:27:36.612Z,94799.63
2023-03-26T06:30:38.875Z,94796.91
2023-03-26T06:33:44.173Z,94801.91
2023-03-26T06:36:46.218Z,94794.63
2023-03-26T06:39:48.184Z,94793.50
2023-03-26T06:43:09.847Z,94792.75
2023-03-26T06:46:12.345Z,94802.28
2023-03-26T06:49:15.760Z,94788.81
2023-03-26T06:52:18.005Z,94787.31
2023-03-26T06:55:21.545Z,94769.66
2023-03-26T06:58:25.502Z,94788.47
2023-03-26T07:01:27.983Z,94770.78
2023-03-26T07:04:32.557Z,94771.56
2023-03-26T07:07:34.752Z,94760.84
2023-03-26T07:10:47.926Z,94757.00
2023-03-26T07:13:50.177Z,94752.38
2023-03-26T07:16:52.390Z,94748.13
2023-03-26T07:19:58.338Z,94733.53
2023-03-26T07:23:01.021Z,94735.84
2023-03-26T07:26:23.221Z,94722.78
2023-03-26T07:29:35.275Z,94718.59
2023-03-26T07:32:46.765Z,94712.84
2023-03-26T07:35:58.814Z,94700.53
2023-03-26T07:39:20.854Z,94693.25
2023-03-26T07:42:49.731Z,94696.34
2023-03-26T07:45:54.205Z,94685.19
2023-03-26T07:48:56.878Z,94685.19
2023-03-26T07:52:12.709Z,94678.66
2023-03-26T07:55:16.765Z,94678.28
2023-03-26T07:58:39.764Z,94662.53
2023-03-26T08:01:53.902Z,94656.00
2023-03-26T08:05:05.600Z,94659.06
2023-03-26T08:08:18.972Z,94654.84
2023-03-26T08:11:38.109Z,94650.22
2023-03-26T08:14:50.804Z,94644.47
2023-03-26T08:17:59.833Z,94641.72
2023-03-26T08:21:08.477Z,94630.56
2023-03-26T08:24:21.866Z,94629.78
2023-03-26T08:27:38.798Z,94629.38
2023-03-26T08:30:40.807Z,94621.25
2023-03-26T08:33:44.249Z,94615.53
2023-03-26T08:36:46.107Z,94612.41
2023-03-26T08:39:49.691Z,94603.56
2023-03-26T08:43:20.186Z,94594.72
2023-03-26T08:46:56.488Z,94584.72
2023-03-26T08:50:24.722Z,94583.22
2023-03-26T08:53:49.666Z,94559.66
2023-03-26T08:57:10.917Z,94550.41
2023-03-26T09:00:38.338Z,94536.91
2023-03-26T09:04:05.370Z,94525.31
2023-03-26T09:07:46.310Z,94514.41
2023-03-26T09:10:57.755Z,94506.66
2023-03-26T09:14:25.541Z,94504.56
2023-03-26T09:18:08.836Z,94491.09
2023-03-26T09:21:46.429Z,94490.69
2023-03-26T09:25:12.623Z,94477.25
2023-03-26T09:28:44.398Z,94479.88
2023-03-26T09:32:28.177Z,94490.69
2023-03-26T09:35:51.316Z,94478.38
2023-03-26T09:39:02.996Z,94474.50
2023-03-26T09:42:10.240Z,94454.41
2023-03-26T09:45:39.621Z,94451.63
2023-03-26T09:49:01.649Z,94430.81
2023-03-26T09:52:22.745Z,94423.72
2023-03-26T09:55:54.258Z,94428.97
2023-03-26T09:59:25.954Z,94415.63
2023-03-26T10:02:49.232Z,94404.78
2023-03-26T10:06:10.444Z,94400.59
2023-03-26T10:09:32.749Z,94399.38
2023-03-26T10:12:39.348Z,94391.94
2023-03-26T10:15:55.382Z,94383.34
2023-03-26T10:19:11.301Z,94386.44
2023-03-26T10:22:28.072Z,94376.34
2023-03-26T10:25:44.617Z,94369.78
2023-03-26T10:29:02.313Z,94364.00
2023-03-26T10:32:20.819Z,94358.56
2023-03-26T10:35:36.625Z,94357.00
2023-03-26T10:39:37.579Z,94353.78
2023-03-26T10:43:09.262Z,94337.91
2023-03-26T10:46:32.800Z,94344.41
2023-03-26T10:50:00.771Z,94346.13
2023-03-26T10:53:07.157Z,94355.88
2023-03-26T10:56:32.542Z,94368.22
2023-03-26T10:59:34.524Z,94368.50
2023-03-26T11:02:44.523Z,94374.28
2023-03-26T11:05:54.776Z,94375.84
2023-03-26T11:09:04.208Z,94380.47
2023-03-26T11:12:26.339Z,94388.34
2023-03-26T11:15:37.761Z,94396.91
2023-03-26T11:18:44.964Z,94409.25
2023-03-26T11:21:54.818Z,94429.38
2023-03-26T11:25:16.064Z,94442.38
2023-03-26T11:28:42.029Z,94453.25
2023-03-26T11:32:06.777Z,94429.66
2023-03-26T11:35:40.434Z,94409.09
2023-03-26T11:38:43.957Z,94388.25
2023-03-26T11:41:48.191Z,94376.59
2023-03-26T11:44:55.798Z,94380.50
2023-03-26T11:48:04.475Z,94391.97
2023-03-26T11:51:09.461Z,94379.63
2023-03-26T11:54:13.820Z,94363.09
2023-03-26T11:57:21.446Z,94350.34
2023-03-26T12:00:26.962Z,94340.34
2023-03-26T12:03:30.969Z,94338.28
2023-03-26T12:06:32.948Z,94344.06
2023-03-26T12:09:36.383Z,94351.47
2023-03-26T12:12:41.906Z,94351.03
2023-03-26T12:15:46.006Z,94361.28
2023-03-26T12:18:59.918Z,94358.84
2023-03-26T12:22:02.787Z,94354.53
2023-03-26T12:25:16.572Z,94360.38
2023-03-26T12:28:20.749Z,94371.94
2023-03-26T12:31:25.556Z,94374.41
2023-03-26T12:34:31.515Z,94372.22
2023-03-26T12:37:39.591Z,94371.69
2023-03-26T12:40:43.716Z,94372.06
2023-03-26T12:44:47.651Z,94367.22
2023-03-26T12:47:59.790Z,94364.69
2023-03-26T12:50:56.591Z,94345.00
2023-03-26T12:54:13.230Z,94336.53
2023-03-26T12:57:21.040Z,94338.69
2023-03-26T13:00:34.148Z,94323.31
2023-03-26T13:03:54.944Z,94325.19
2023-03-26T13:07:01.931Z,94321.53
2023-03-26T13:10:39.902Z,94316.75
2023-03-26T13:13:56.889Z,94315.16
2023-03-26T13:17:08.352Z,94303.09
2023-03-26T13:20:19.361Z,94300.44
2023-03-26T13:23:34.868Z,94294.16
2023-03-26T13:26:48.148Z,94302.88
2023-03-26T13:29:56.906Z,94303.94
2023-03-26T13:33:13.884Z,94302.69
2023-03-26T13:36:24.575Z,94302.63
2023-03-26T13:39:35.482Z,94295.28
2023-03-26T13:42:50.884Z,94296.50
2023-03-26T13:46:05.127Z,94283.66
2023-03-26T13:49:12.546Z,94292.38
2023-03-26T13:52:23.113Z,94298.13
2023-03-26T13:55:29.870Z,94307.81
2023-03-26T13:58:37.976Z,94294.81
2023-03-26T14:01:44.579Z,94279.34
2023-03-26T14:04:52.156Z,94274.13
2023-03-26T14:08:03.834Z,94271.13
2023-03-26T14:11:12.068Z,94271.72
2023-03-26T14:14:20.478Z,94262.25
2023-03-26T14:17:28.737Z,94266.19
2023-03-26T14:20:51.961Z,94261.66
2023-03-26T14:24:31.555Z,94255.66
2023-03-26T14:27:45.805Z,94262.72
2023-03-26T14:31:02.291Z,94253.53
2023-03-26T14:34:28.738Z,94250.56
2023-03-26T14:37:57.752Z,94242.91
2023-03-26T14:41:14.023Z,94232.81
2023-03-26T14:44:57.291Z,94236.91
2023-03-26T14:48:23.370Z,94232.59
2023-03-26T14:51:51.594Z,94223.06
2023-03-26T14:55:00.454Z,94228.47
2023-03-26T14:58:35.295Z,94226.78
2023-03-26T15:02:19.219Z,94223.66
2023-03-26T15:05:47.978Z,94221.66
2023-03-26T15:09:44.028Z,94218.50
2023-03-26T15:13:11.892Z,94212.91
2023-03-26T15:16:57.965Z,94214.03
2023-03-26T15:20:45.189Z,94205.22
2023-03-26T15:24:31.882Z,94201.09
2023-03-26T15:27:54.574Z,94201.03
2023-03-26T15:31:38.352Z,94200.16
2023-03-26T15:35:19.681Z,94211.25
2023-03-26T15:38:55.029Z,94222.09
2023-03-26T15:42:07.788Z,94228.72
2023-03-26T15:45:32.956Z,94216.06
2023-03-26T15:48:55.104Z,94210.63
2023-03-26T15:52:05.227Z,94202.72
2023-03-26T15:55:25.541Z,94196.50
2023-03-26T15:58:37.940Z,94193.91
2023-03-26T16:01:54.120Z,94188.25
2023-03-26T16:05:01.888Z,94205.50
2023-03-26T16:08:18.187Z,94204.44
2023-03-26T16:11:52.676Z,94212.16
2023-03-26T16:15:29.100Z,94215.22
2023-03-26T16:18:38.587Z,94220.16
2023-03-26T16:21:56.202Z,94207.88
2023-03-26T16:25:27.494Z,94215.81
2023-03-26T16:28:36.796Z,94219.38
2023-03-26T16:32:03.664Z,94220.50
2023-03-26T16:35:35.851Z,94216.59
2023-03-26T16:38:55.336Z,94217.50
2023-03-26T16:42:27.928Z,94214.56
2023-03-26T16:45:38.938Z,94218.06
2023-03-26T16:48:55.273Z,94212.31
2023-03-26T16:52:06.774Z,94214.81
2023-03-26T16:55:22.240Z,94216.72
2023-03-26T16:58:31.957Z,94199.03
2023-03-26T17:01:59.656Z,94191.22
2023-03-26T17:05:18.722Z,94182.31
2023-03-26T17:08:35.553Z,94183.34
2023-03-26T17:11:52.023Z,94172.63
2023-03-26T17:15:21.575Z,94163.75
2023-03-26T17:18:41.598Z,94165.25
2023-03-26T17:21:52.173Z,94166.47
2023-03-26T17:25:00.800Z,94164.50
2023-03-26T17:28:26.303Z,94163.44
2023-03-26T17:31:41.367Z,94173.06
2023-03-26T17:35:01.197Z,94179.59
2023-03-26T17:38:05.210Z,94186.53
2023-03-26T17:41:14.773Z,94186.63
2023-03-26T17:44:45.482Z,94168.94
2023-03-26T17:47:54.447Z,94168.50
2023-03-26T17:51:04.521Z,94162.38
2023-03-26T17:54:17.288Z,94157.31
2023-03-26T17:57:25.712Z,94143.84
2023-03-26T18:00:33.829Z,94130.38
2023-03-26T18:03:42.269Z,94130.31
2023-03-26T18:07:13.980Z,94131.09
2023-03-26T18:10:43.281Z,94127.31
2023-03-26T18:14:30.347Z,94133.63
2023-03-26T18:17:41.959Z,94139.47
2023-03-26T18:20:46.709Z,94140.59
2023-03-26T18:23:51.113Z,94152.84
2023-03-26T18:26:58.939Z,94155.13
2023-03-26T18:30:16.941Z,94156.72
2023-03-26T18:33:23.711Z,94149.44
2023-03-26T18:36:31.054Z,94142.25
2023-03-26T18:39:38.577Z,94133.09
2023-03-26T18:42:47.745Z,94118.84
2023-03-26T18:45:53.856Z,94118.88
2023-03-26T18:49:01.676Z,94124.28
2023-03-26T18:52:04.991Z,94132.06
2023-03-26T18:55:14.911Z,94129.75
2023-03-26T18:58:25.976Z,94130.13
2023-03-26T19:01:31.230Z,94134.44
2023-03-26T19:04:35.985Z,94130.91
2023-03-26T19:07:39.496Z,94123.63
2023-03-26T19:10:46.115Z,94119.00
2023-03-26T19:14:00.491Z,94121.25
2023-03-26T19:17:07.544Z,94104.38
2023-03-26T19:20:17.307Z,94097.88
2023-03-26T19:23:24.451Z,94085.28
2023-03-26T19:26:31.666Z,94084.81
2023-03-26T19:29:36.631Z,94079.19
2023-03-26T19:32:41.265Z,94066.53
2023-03-26T19:35:46.601Z,94054.34
2023-03-26T19:38:53.535Z,94054.63
2023-03-26T19:41:59.219Z,94066.63
2023-03-26T19:45:04.686Z,94072.03
2023-03-26T19:48:15.265Z,94082.03
2023-03-26T19:51:23.554Z,94085.88
2023-03-26T19:54:31.437Z,94090.66
2023-03-26T19:57:36.549Z,94083.72
2023-03-26T20:00:41.470Z,94084.22
2023-03-26T20:03:46.774Z,94091.28
2023-03-26T20:06:50.133Z,94091.66
2023-03-26T20:09:53.945Z,94107.78
2023-03-26T20:13:00.511Z,94108.63
2023-03-26T20:16:07.894Z,94107.72
2023-03-26T20:19:12.144Z,94101.16
2023-03-26T20:22:19.912Z,94118.91
2023-03-26T20:25:28.825Z,94134.72
2023-03-26T20:28:47.905Z,94114.81
2023-03-26T20:31:51.747Z,94110.22
2023-03-26T20:34:54.844Z,94115.25
2023-03-26T20:37:58.760Z,94112.53
2023-03-26T20:41:01.818Z,94112.91
2023-03-26T20:44:14.007Z,94121.72
2023-03-26T20:47:20.182Z,94125.59
2023-03-26T20:50:22.857Z,94120.66
2023-03-26T20:53:26.624Z,94116.41
2023-03-26T20:56:28.871Z,94116.47
2023-03-26T20:59:32.718Z,94118.38
2023-03-26T21:02:35.222Z,94122.97
2023-03-26T21:05:38.393Z,94120.00
2023-03-26T21:08:41.451Z,94117.75
2023-03-26T21:11:59.998Z,94120.06
2023-03-26T21:15:10.254Z,94112.38
2023-03-26T21:18:19.974Z,94121.59
2023-03-26T21:21:35.508Z,94113.59
2023-03-26T21:24:49.321Z,94118.59
2023-03-26T21:28:06.035Z,94114.75
2023-03-26T21:31:14.923Z,94101.75
2023-03-26T21:34:17.607Z,94105.56
2023-03-26T21:37:20.392Z,94131.63
2023-03-26T21:40:22.900Z,94111.72
2023-03-26T21:43:25.721Z,94109.78
2023-03-26T21:46:31.549Z,94111.34
2023-03-26T21:49:34.357Z,94102.09
2023-03-26T21:52:37.394Z,94105.56
2023-03-26T21:55:48.568Z,94105.56
2023-03-26T21:58:59.090Z,94104.81
2023-03-26T22:02:10.505Z,94110.19
2023-03-26T22:05:16.356Z,94106.75
2023-03-26T22:08:25.203Z,94111.72
2023-03-26T22:11:27.000Z,94114.03
2023-03-26T22:14:28.924Z,94109.81
2023-03-26T22:17:32.248Z,94100.97
2023-03-26T22:20:34.296Z,94099.47
2023-03-26T22:23:36.343Z,94102.94
2023-03-26T22:26:38.621Z,94104.84
2023-03-26T22:29:40.380Z,94107.16
2023-03-26T22:32:43.748Z,94108.66
2023-03-26T22:35:46.349Z,94108.28
2023-03-26T22:38:51.192Z,94106.72
2023-03-26T22:41:53.155Z,94096.38
2023-03-26T22:44:54.981Z,94105.19
2023-03-26T22:48:03.950Z,94106.75
2023-03-26T22:51:08.091Z,94098.69
2023-03-26T22:54:10.634Z,94104.47
2023-03-26T22:57:12.864Z,94101.00
2023-03-26T23:00:15.603Z,94099.88
2023-03-26T23:03:20.400Z,94088.78
2023-03-26T23:06:38.585Z,94091.88
2023-03-26T23:09:40.375Z,94078.06
2023-03-26T23:12:42.215Z,94084.59
2023-03-26T23:15:44.091Z,94079.25
2023-03-26T23:18:47.678Z,94084.63
2023-03-26T23:21:49.905Z,94081.16
2023-03-26T23:24:51.662Z,94088.44
2023-03-26T23:27:53.546Z,94088.81
2023-03-26T23:30:55.605Z,94073.88
2023-03-26T23:34:01.432Z,94070.84
2023-03-26T23:37:03.390Z,94077.34
2023-03-26T23:40:06.823Z,94081.91
2023-03-26T23:43:08.924Z,94078.06
2023-03-26T23:46:10.947Z,94080.00
2023-03-26T23:49:14.578Z,94068.91
2023-03-26T23:52:16.568Z,94070.06
2023-03-26T23:55:18.336Z,94081.91
2023-03-26T23:58:21.559Z,94076.56
